createdAt,value
2018-11-25T00:00:26.147Z,20.35
2018-11-25T00:01:29.520Z,20.34
2018-11-25T00:02:32.953Z,20.35
2018-11-25T00:03:36.318Z,20.35
2018-11-25T00:04:39.763Z,20.32
2018-11-25T00:05:43.185Z,20.30
2018-11-25T00:06:46.770Z,20.29
2018-11-25T00:07:50.366Z,20.27
2018-11-25T00:08:53.753Z,20.26
2018-11-25T00:09:57.158Z,20.24
2018-11-25T00:11:00.547Z,20.21
2018-11-25T00:12:03.955Z,20.20
2018-11-25T00:13:07.334Z,20.18
2018-11-25T00:14:10.890Z,20.18
2018-11-25T00:15:14.344Z,20.19
2018-11-25T00:16:17.882Z,20.20
2018-11-25T00:17:21.741Z,20.21
2018-11-25T00:18:25.200Z,20.24
2018-11-25T00:19:28.588Z,20.23
2018-11-25T00:20:32.038Z,20.26
2018-11-25T00:21:35.456Z,20.27
2018-11-25T00:22:38.911Z,20.30
2018-11-25T00:23:42.293Z,20.30
2018-11-25T00:24:45.839Z,20.31
2018-11-25T00:25:49.301Z,20.34
2018-11-25T00:26:52.681Z,20.32
2018-11-25T00:27:56.111Z,20.33
2018-11-25T00:28:59.495Z,20.32
2018-11-25T00:30:02.912Z,20.32
2018-11-25T00:31:09.721Z,20.31
2018-11-25T00:32:09.441Z,20.30
2018-11-25T00:33:12.851Z,20.29
2018-11-25T00:34:16.265Z,20.26
2018-11-25T00:35:19.838Z,20.27
2018-11-25T00:36:23.219Z,20.24
2018-11-25T00:37:26.595Z,20.20
2018-11-25T00:38:29.996Z,20.22
2018-11-25T00:39:33.422Z,20.20
2018-11-25T00:40:36.791Z,20.20
2018-11-25T00:41:40.194Z,20.18
2018-11-25T00:42:44.365Z,20.16
2018-11-25T00:43:47.832Z,20.15
2018-11-25T00:44:51.249Z,20.18
2018-11-25T00:45:54.648Z,20.22
2018-11-25T00:46:58.061Z,20.25
2018-11-25T00:48:01.477Z,20.27
2018-11-25T00:49:04.889Z,20.27
2018-11-25T00:50:11.040Z,20.27
2018-11-25T00:51:14.468Z,20.28
2018-11-25T00:52:17.971Z,20.30
2018-11-25T00:53:21.393Z,20.30
2018-11-25T00:54:24.849Z,20.30
2018-11-25T00:55:28.287Z,20.30
2018-11-25T00:56:31.672Z,20.29
2018-11-25T00:57:35.051Z,20.31
2018-11-25T00:58:38.466Z,20.30
2018-11-25T00:59:41.863Z,20.29
2018-11-25T01:00:45.293Z,20.29
2018-11-25T01:01:48.868Z,20.27
2018-11-25T01:02:52.319Z,20.27
2018-11-25T01:03:55.696Z,20.25
2018-11-25T01:04:59.208Z,20.23
2018-11-25T01:06:02.604Z,20.23
2018-11-25T01:07:06.170Z,20.21
2018-11-25T01:08:09.587Z,20.20
2018-11-25T01:09:12.974Z,20.19
2018-11-25T01:10:17.374Z,20.17
2018-11-25T01:11:20.856Z,20.14
2018-11-25T01:12:24.286Z,20.15
2018-11-25T01:13:27.653Z,20.16
2018-11-25T01:14:31.095Z,20.18
2018-11-25T01:15:34.514Z,20.20
2018-11-25T01:16:37.926Z,20.20
2018-11-25T01:17:41.369Z,20.22
2018-11-25T01:18:44.795Z,20.24
2018-11-25T01:19:48.818Z,20.24
2018-11-25T01:20:52.310Z,20.25
2018-11-25T01:21:55.701Z,20.28
2018-11-25T01:22:59.100Z,20.30
2018-11-25T01:24:02.478Z,20.28
2018-11-25T01:25:07.097Z,20.29
2018-11-25T01:26:10.545Z,20.31
2018-11-25T01:27:13.956Z,20.30
2018-11-25T01:28:17.355Z,20.30
2018-11-25T01:29:20.756Z,20.28
2018-11-25T01:30:24.163Z,20.28
2018-11-25T01:31:27.597Z,20.27
2018-11-25T01:32:30.990Z,20.27
2018-11-25T01:33:34.385Z,20.25
2018-11-25T01:34:37.797Z,20.23
2018-11-25T01:35:41.194Z,20.23
2018-11-25T01:36:44.611Z,20.21
2018-11-25T01:37:48.061Z,20.20
2018-11-25T01:38:51.510Z,20.17
2018-11-25T01:39:54.904Z,20.16
2018-11-25T01:40:58.335Z,20.14
2018-11-25T01:42:01.764Z,20.14
2018-11-25T01:43:05.553Z,20.14
2018-11-25T01:44:08.971Z,20.18
2018-11-25T01:45:13.574Z,20.19
2018-11-25T01:46:17.003Z,20.21
2018-11-25T01:47:20.437Z,20.23
2018-11-25T01:48:23.838Z,20.28
2018-11-25T01:49:27.291Z,20.28
2018-11-25T01:50:30.734Z,20.28
2018-11-25T01:51:34.127Z,20.27
2018-11-25T01:52:38.217Z,20.29
2018-11-25T01:53:41.639Z,20.31
2018-11-25T01:54:45.338Z,20.32
2018-11-25T01:55:48.747Z,20.31
2018-11-25T01:56:52.260Z,20.29
2018-11-25T01:57:55.778Z,20.27
2018-11-25T01:59:00.624Z,20.27
2018-11-25T02:00:02.707Z,20.27
2018-11-25T02:01:06.580Z,20.24
2018-11-25T02:02:10.057Z,20.27
2018-11-25T02:03:13.510Z,20.27
2018-11-25T02:04:16.973Z,20.24
2018-11-25T02:05:20.414Z,20.22
2018-11-25T02:06:23.814Z,20.21
2018-11-25T02:07:27.247Z,20.19
2018-11-25T02:08:30.761Z,20.18
2018-11-25T02:09:34.158Z,20.17
2018-11-25T02:10:37.697Z,20.14
2018-11-25T02:11:41.069Z,20.13
2018-11-25T02:12:44.537Z,20.15
2018-11-25T02:13:48.011Z,20.16
2018-11-25T02:14:51.406Z,20.18
2018-11-25T02:15:54.796Z,20.20
2018-11-25T02:16:58.225Z,20.22
2018-11-25T02:18:01.666Z,20.23
2018-11-25T02:19:05.099Z,20.25
2018-11-25T02:20:13.878Z,20.25
2018-11-25T02:21:17.309Z,20.27
2018-11-25T02:22:20.748Z,20.30
2018-11-25T02:23:24.394Z,20.29
2018-11-25T02:24:27.807Z,20.29
2018-11-25T02:25:31.313Z,20.29
2018-11-25T02:26:34.819Z,20.29
2018-11-25T02:27:38.202Z,20.27
2018-11-25T02:28:41.584Z,20.26
2018-11-25T02:29:45.082Z,20.23
2018-11-25T02:30:48.516Z,20.24
2018-11-25T02:31:51.901Z,20.22
2018-11-25T02:32:55.315Z,20.20
2018-11-25T02:33:58.713Z,20.18
2018-11-25T02:35:02.211Z,20.18
2018-11-25T02:36:06.011Z,20.15
2018-11-25T02:37:09.390Z,20.13
2018-11-25T02:38:12.865Z,20.10
2018-11-25T02:39:16.270Z,20.10
2018-11-25T02:40:19.724Z,20.07
2018-11-25T02:41:23.154Z,20.05
2018-11-25T02:42:26.545Z,20.04
2018-11-25T02:43:29.909Z,20.03
2018-11-25T02:44:33.333Z,20.01
2018-11-25T02:45:36.749Z,20.00
2018-11-25T02:46:40.146Z,19.98
2018-11-25T02:47:43.602Z,19.94
2018-11-25T02:48:47.023Z,19.92
2018-11-25T02:49:50.447Z,19.90
2018-11-25T02:50:53.887Z,19.89
2018-11-25T02:51:57.313Z,19.86
2018-11-25T02:53:01.997Z,19.85
2018-11-25T02:54:05.520Z,19.83
2018-11-25T02:55:09.008Z,19.82
2018-11-25T02:56:12.445Z,19.80
2018-11-25T02:57:19.987Z,19.78
2018-11-25T02:58:23.415Z,19.76
2018-11-25T02:59:26.845Z,19.75
2018-11-25T03:00:30.245Z,19.73
2018-11-25T03:01:33.667Z,19.72
2018-11-25T03:02:37.107Z,19.71
2018-11-25T03:03:40.512Z,19.69
2018-11-25T03:04:43.903Z,19.67
2018-11-25T03:05:47.335Z,19.66
2018-11-25T03:06:50.803Z,19.64
2018-11-25T03:07:54.244Z,19.63
2018-11-25T03:08:57.641Z,19.61
2018-11-25T03:10:01.282Z,19.60
2018-11-25T03:11:05.057Z,19.58
2018-11-25T03:12:08.511Z,19.58
2018-11-25T03:13:11.930Z,19.56
2018-11-25T03:14:15.343Z,19.55
2018-11-25T03:15:19.046Z,19.55
2018-11-25T03:16:22.441Z,19.52
2018-11-25T03:17:25.847Z,19.51
2018-11-25T03:18:29.223Z,19.51
2018-11-25T03:19:32.604Z,19.49
2018-11-25T03:20:36.045Z,19.49
2018-11-25T03:21:39.445Z,19.47
2018-11-25T03:22:42.839Z,19.46
2018-11-25T03:23:46.313Z,19.44
2018-11-25T03:24:49.718Z,19.42
2018-11-25T03:25:53.130Z,19.41
2018-11-25T03:26:56.566Z,19.40
2018-11-25T03:28:00.032Z,19.39
2018-11-25T03:29:03.480Z,19.36
2018-11-25T03:30:13.224Z,19.35
2018-11-25T03:31:16.668Z,19.32
2018-11-25T03:32:20.179Z,19.32
2018-11-25T03:33:23.575Z,19.30
2018-11-25T03:34:26.931Z,19.28
2018-11-25T03:35:30.377Z,19.27
2018-11-25T03:36:33.791Z,19.27
2018-11-25T03:37:37.255Z,19.25
2018-11-25T03:38:40.687Z,19.24
2018-11-25T03:39:44.108Z,19.22
2018-11-25T03:40:47.528Z,19.23
2018-11-25T03:41:50.953Z,19.26
2018-11-25T03:42:54.365Z,19.28
2018-11-25T03:43:57.770Z,19.28
2018-11-25T03:45:01.156Z,19.31
2018-11-25T03:46:04.592Z,19.31
2018-11-25T03:47:08.064Z,19.33
2018-11-25T03:48:11.532Z,19.34
2018-11-25T03:49:15.041Z,19.35
2018-11-25T03:50:18.453Z,19.39
2018-11-25T03:51:21.867Z,19.39
2018-11-25T03:52:25.412Z,19.41
2018-11-25T03:53:28.848Z,19.39
2018-11-25T03:54:32.278Z,19.41
2018-11-25T03:55:35.701Z,19.42
2018-11-25T03:56:39.139Z,19.42
2018-11-25T03:57:42.567Z,19.41
2018-11-25T03:58:46.049Z,19.43
2018-11-25T03:59:49.462Z,19.43
2018-11-25T04:00:52.875Z,19.41
2018-11-25T04:01:56.310Z,19.40
2018-11-25T04:02:59.785Z,19.38
2018-11-25T04:04:03.193Z,19.34
2018-11-25T04:05:08.044Z,19.32
2018-11-25T04:06:11.474Z,19.30
2018-11-25T04:07:14.886Z,19.28
2018-11-25T04:08:18.305Z,19.26
2018-11-25T04:09:21.721Z,19.24
2018-11-25T04:10:25.173Z,19.22
2018-11-25T04:11:28.598Z,19.20
2018-11-25T04:12:31.975Z,19.18
2018-11-25T04:13:35.361Z,19.17
2018-11-25T04:14:38.771Z,19.15
2018-11-25T04:15:42.190Z,19.15
2018-11-25T04:16:45.613Z,19.12
2018-11-25T04:17:49.356Z,19.11
2018-11-25T04:18:52.831Z,19.10
2018-11-25T04:19:56.269Z,19.08
2018-11-25T04:20:59.806Z,19.08
2018-11-25T04:22:03.242Z,19.06
2018-11-25T04:23:06.767Z,19.05
2018-11-25T04:24:10.201Z,19.04
2018-11-25T04:25:14.122Z,19.03
2018-11-25T04:26:17.591Z,19.02
2018-11-25T04:27:21.046Z,19.01
2018-11-25T04:28:24.456Z,19.00
2018-11-25T04:29:27.853Z,18.99
2018-11-25T04:30:31.229Z,18.98
2018-11-25T04:31:34.719Z,18.97
2018-11-25T04:32:38.151Z,18.96
2018-11-25T04:33:41.660Z,18.94
2018-11-25T04:34:45.131Z,18.94
2018-11-25T04:35:48.627Z,18.93
2018-11-25T04:36:52.084Z,18.92
2018-11-25T04:37:55.473Z,18.92
2018-11-25T04:38:58.882Z,18.91
2018-11-25T04:40:02.323Z,18.90
2018-11-25T04:41:05.913Z,18.89
2018-11-25T04:42:09.370Z,18.89
2018-11-25T04:43:12.766Z,18.87
2018-11-25T04:44:16.241Z,18.87
2018-11-25T04:45:19.638Z,18.85
2018-11-25T04:46:23.056Z,18.85
2018-11-25T04:47:26.461Z,18.84
2018-11-25T04:48:29.881Z,18.83
2018-11-25T04:49:33.254Z,18.82
2018-11-25T04:50:36.693Z,18.82
2018-11-25T04:51:40.132Z,18.81
2018-11-25T04:52:43.580Z,18.80
2018-11-25T04:53:47.015Z,18.78
2018-11-25T04:54:50.398Z,18.78
2018-11-25T04:55:53.774Z,18.77
2018-11-25T04:56:57.173Z,18.74
2018-11-25T04:58:00.594Z,18.75
2018-11-25T04:59:04.040Z,18.74
2018-11-25T05:00:12.163Z,18.74
2018-11-25T05:01:15.587Z,18.73
2018-11-25T05:02:19.099Z,18.72
2018-11-25T05:03:22.627Z,18.71
2018-11-25T05:04:26.020Z,18.71
2018-11-25T05:05:29.452Z,18.70
2018-11-25T05:06:32.857Z,18.70
2018-11-25T05:07:36.309Z,18.69
2018-11-25T05:08:39.704Z,18.68
2018-11-25T05:09:43.177Z,18.68
2018-11-25T05:10:46.618Z,18.67
2018-11-25T05:11:50.036Z,18.67
2018-11-25T05:12:53.475Z,18.66
2018-11-25T05:13:57.012Z,18.65
2018-11-25T05:15:00.367Z,18.65
2018-11-25T05:16:03.905Z,18.64
2018-11-25T05:17:07.373Z,18.63
2018-11-25T05:18:10.801Z,18.62
2018-11-25T05:19:14.192Z,18.61
2018-11-25T05:20:18.345Z,18.62
2018-11-25T05:21:21.775Z,18.60
2018-11-25T05:22:25.360Z,18.60
2018-11-25T05:23:28.793Z,18.59
2018-11-25T05:24:32.189Z,18.58
2018-11-25T05:25:35.675Z,18.59
2018-11-25T05:26:39.057Z,18.57
2018-11-25T05:27:42.592Z,18.57
2018-11-25T05:28:46.106Z,18.55
2018-11-25T05:29:49.503Z,18.55
2018-11-25T05:30:53.015Z,18.54
2018-11-25T05:31:56.411Z,18.54
2018-11-25T05:32:59.834Z,18.54
2018-11-25T05:34:03.226Z,18.54
2018-11-25T05:35:08.297Z,18.53
2018-11-25T05:36:11.757Z,18.51
2018-11-25T05:37:15.212Z,18.51
2018-11-25T05:38:18.629Z,18.50
2018-11-25T05:39:22.062Z,18.51
2018-11-25T05:40:25.503Z,18.50
2018-11-25T05:41:28.901Z,18.50
2018-11-25T05:42:32.427Z,18.50
2018-11-25T05:43:35.850Z,18.50
2018-11-25T05:44:39.275Z,18.49
2018-11-25T05:45:42.648Z,18.47
2018-11-25T05:46:46.105Z,18.48
2018-11-25T05:47:49.586Z,18.46
2018-11-25T05:48:53.024Z,18.46
2018-11-25T05:49:56.437Z,18.45
2018-11-25T05:50:59.861Z,18.45
2018-11-25T05:52:03.308Z,18.45
2018-11-25T05:53:06.713Z,18.45
2018-11-25T05:54:10.115Z,18.44
2018-11-25T05:55:14.154Z,18.45
2018-11-25T05:56:17.557Z,18.44
2018-11-25T05:57:20.966Z,18.43
2018-11-25T05:58:24.589Z,18.43
2018-11-25T05:59:28.008Z,18.42
2018-11-25T06:00:33.319Z,18.42
2018-11-25T06:01:36.734Z,18.42
2018-11-25T06:02:40.163Z,18.41
2018-11-25T06:03:43.598Z,18.41
2018-11-25T06:04:46.956Z,18.41
2018-11-25T06:05:50.372Z,18.40
2018-11-25T06:06:53.764Z,18.40
2018-11-25T06:07:57.147Z,18.40
2018-11-25T06:09:00.590Z,18.39
2018-11-25T06:10:04.116Z,18.39
2018-11-25T06:11:07.541Z,18.38
2018-11-25T06:12:10.970Z,18.37
2018-11-25T06:13:14.370Z,18.37
2018-11-25T06:14:17.768Z,18.36
2018-11-25T06:15:21.197Z,18.37
2018-11-25T06:16:24.618Z,18.36
2018-11-25T06:17:28.031Z,18.37
2018-11-25T06:18:31.407Z,18.36
2018-11-25T06:19:34.820Z,18.35
2018-11-25T06:20:38.187Z,18.35
2018-11-25T06:21:41.605Z,18.35
2018-11-25T06:22:45.467Z,18.35
2018-11-25T06:23:48.854Z,18.34
2018-11-25T06:24:52.255Z,18.35
2018-11-25T06:25:55.677Z,18.35
2018-11-25T06:26:59.132Z,18.37
2018-11-25T06:28:02.603Z,18.37
2018-11-25T06:29:06.309Z,18.38
2018-11-25T06:30:12.806Z,18.39
2018-11-25T06:31:16.845Z,18.38
2018-11-25T06:32:20.457Z,18.38
2018-11-25T06:33:23.865Z,18.38
2018-11-25T06:34:27.242Z,18.38
2018-11-25T06:35:30.646Z,18.38
2018-11-25T06:36:34.003Z,18.38
2018-11-25T06:37:37.423Z,18.37
2018-11-25T06:38:40.784Z,18.37
2018-11-25T06:39:44.169Z,18.36
2018-11-25T06:40:47.699Z,18.35
2018-11-25T06:41:51.089Z,18.36
2018-11-25T06:42:54.489Z,18.36
2018-11-25T06:43:57.916Z,18.36
2018-11-25T06:45:01.326Z,18.35
2018-11-25T06:46:07.299Z,18.34
2018-11-25T06:47:10.720Z,18.34
2018-11-25T06:48:14.177Z,18.33
2018-11-25T06:49:17.570Z,18.32
2018-11-25T06:50:21.005Z,18.30
2018-11-25T06:51:24.467Z,18.31
2018-11-25T06:52:27.878Z,18.30
2018-11-25T06:53:31.287Z,18.30
2018-11-25T06:54:34.717Z,18.27
2018-11-25T06:55:38.847Z,18.28
2018-11-25T06:56:42.302Z,18.27
2018-11-25T06:57:45.961Z,18.26
2018-11-25T06:58:49.381Z,18.26
2018-11-25T06:59:52.791Z,18.25
2018-11-25T07:01:03.139Z,18.25
2018-11-25T07:02:14.907Z,18.24
2018-11-25T07:03:18.306Z,18.24
2018-11-25T07:04:21.728Z,18.23
2018-11-25T07:05:25.148Z,18.23
2018-11-25T07:06:28.843Z,18.23
2018-11-25T07:07:32.247Z,18.22
2018-11-25T07:08:35.650Z,18.21
2018-11-25T07:09:39.092Z,18.22
2018-11-25T07:10:42.506Z,18.22
2018-11-25T07:11:45.886Z,18.23
2018-11-25T07:12:50.521Z,18.22
2018-11-25T07:13:53.936Z,18.22
2018-11-25T07:14:57.376Z,18.22
2018-11-25T07:16:00.742Z,18.23
2018-11-25T07:17:04.119Z,18.22
2018-11-25T07:18:07.526Z,18.23
2018-11-25T07:19:10.996Z,18.24
2018-11-25T07:20:15.539Z,18.24
2018-11-25T07:21:19.011Z,18.22
2018-11-25T07:22:22.387Z,18.23
2018-11-25T07:23:25.742Z,18.22
2018-11-25T07:24:29.222Z,18.22
2018-11-25T07:25:32.624Z,18.22
2018-11-25T07:26:36.035Z,18.22
2018-11-25T07:27:39.499Z,18.22
2018-11-25T07:28:42.938Z,18.22
2018-11-25T07:29:46.406Z,18.22
2018-11-25T07:30:49.895Z,18.22
2018-11-25T07:31:53.655Z,18.21
2018-11-25T07:32:57.257Z,18.21
2018-11-25T07:34:00.628Z,18.22
2018-11-25T07:35:04.058Z,18.21
2018-11-25T07:36:07.564Z,18.21
2018-11-25T07:37:10.959Z,18.21
2018-11-25T07:38:14.406Z,18.21
2018-11-25T07:39:17.846Z,18.21
2018-11-25T07:40:22.076Z,18.21
2018-11-25T07:41:25.490Z,18.21
2018-11-25T07:42:28.880Z,18.22
2018-11-25T07:43:32.301Z,18.21
2018-11-25T07:44:37.559Z,18.21
2018-11-25T07:45:46.163Z,18.22
2018-11-25T07:46:50.478Z,18.22
2018-11-25T07:47:54.217Z,18.22
2018-11-25T07:48:57.786Z,18.21
2018-11-25T07:50:01.422Z,18.21
2018-11-25T07:51:06.452Z,18.21
2018-11-25T07:52:12.484Z,18.21
2018-11-25T07:53:17.067Z,18.22
2018-11-25T07:54:22.541Z,18.21
2018-11-25T07:55:29.445Z,18.20
2018-11-25T07:56:32.915Z,18.21
2018-11-25T07:57:36.362Z,18.21
2018-11-25T07:58:42.266Z,18.22
2018-11-25T07:59:47.175Z,18.21
2018-11-25T08:00:54.887Z,18.20
2018-11-25T08:02:00.782Z,18.20
2018-11-25T08:03:05.073Z,18.21
2018-11-25T08:04:10.044Z,18.20
2018-11-25T08:05:17.685Z,18.19
2018-11-25T08:06:23.684Z,18.19
2018-11-25T08:07:30.185Z,18.18
2018-11-25T08:08:34.563Z,18.18
2018-11-25T08:09:40.569Z,18.18
2018-11-25T08:10:46.170Z,18.17
2018-11-25T08:11:52.484Z,18.16
2018-11-25T08:12:58.427Z,18.16
2018-11-25T08:14:01.835Z,18.16
2018-11-25T08:15:06.054Z,18.15
2018-11-25T08:16:09.548Z,18.16
2018-11-25T08:17:13.029Z,18.15
2018-11-25T08:18:16.518Z,18.15
2018-11-25T08:19:19.937Z,18.15
2018-11-25T08:20:23.565Z,18.16
2018-11-25T08:21:27.004Z,18.13
2018-11-25T08:22:30.411Z,18.15
2018-11-25T08:23:33.836Z,18.13
2018-11-25T08:24:37.223Z,18.12
2018-11-25T08:25:40.660Z,18.13
2018-11-25T08:26:44.105Z,18.12
2018-11-25T08:27:47.656Z,18.12
2018-11-25T08:28:51.058Z,18.12
2018-11-25T08:29:54.478Z,18.11
2018-11-25T08:30:57.877Z,18.11
2018-11-25T08:32:01.278Z,18.11
2018-11-25T08:33:04.798Z,18.10
2018-11-25T08:34:08.198Z,18.10
2018-11-25T08:35:12.246Z,18.09
2018-11-25T08:36:15.651Z,18.09
2018-11-25T08:37:19.125Z,18.12
2018-11-25T08:38:22.521Z,18.14
2018-11-25T08:39:25.980Z,18.13
2018-11-25T08:40:29.518Z,18.13
2018-11-25T08:41:32.913Z,18.12
2018-11-25T08:42:36.432Z,18.11
2018-11-25T08:43:39.868Z,18.12
2018-11-25T08:44:43.345Z,18.12
2018-11-25T08:45:46.787Z,18.12
2018-11-25T08:46:50.391Z,18.12
2018-11-25T08:47:53.833Z,18.12
2018-11-25T08:48:57.262Z,18.13
2018-11-25T08:50:00.745Z,18.13
2018-11-25T08:51:04.437Z,18.12
2018-11-25T08:52:07.882Z,18.14
2018-11-25T08:53:11.336Z,18.14
2018-11-25T08:54:14.856Z,18.15
2018-11-25T08:55:19.462Z,18.15
2018-11-25T08:56:22.873Z,18.16
2018-11-25T08:57:26.311Z,18.16
2018-11-25T08:58:29.739Z,18.15
2018-11-25T08:59:33.203Z,18.16
2018-11-25T09:00:36.630Z,18.15
2018-11-25T09:01:40.035Z,18.16
2018-11-25T09:02:43.467Z,18.16
2018-11-25T09:03:47.446Z,18.15
2018-11-25T09:04:50.886Z,18.15
2018-11-25T09:05:54.303Z,18.15
2018-11-25T09:06:57.703Z,18.14
2018-11-25T09:08:01.108Z,18.13
2018-11-25T09:09:06.361Z,18.13
2018-11-25T09:10:12.102Z,18.12
2018-11-25T09:11:15.564Z,18.13
2018-11-25T09:12:18.988Z,18.13
2018-11-25T09:13:22.418Z,18.12
2018-11-25T09:14:25.851Z,18.12
2018-11-25T09:15:30.600Z,18.11
2018-11-25T09:16:34.016Z,18.11
2018-11-25T09:17:37.411Z,18.12
2018-11-25T09:18:40.816Z,18.13
2018-11-25T09:19:44.221Z,18.13
2018-11-25T09:20:47.664Z,18.14
2018-11-25T09:21:51.114Z,18.14
2018-11-25T09:22:54.513Z,18.13
2018-11-25T09:23:58.004Z,18.15
2018-11-25T09:25:01.404Z,18.14
2018-11-25T09:26:04.913Z,18.17
2018-11-25T09:27:08.309Z,18.17
2018-11-25T09:28:11.679Z,18.18
2018-11-25T09:29:15.103Z,18.17
2018-11-25T09:30:22.756Z,18.19
2018-11-25T09:31:26.194Z,18.18
2018-11-25T09:32:29.615Z,18.20
2018-11-25T09:33:33.048Z,18.18
2018-11-25T09:34:36.431Z,18.18
2018-11-25T09:35:39.840Z,18.18
2018-11-25T09:36:43.280Z,18.18
2018-11-25T09:37:46.761Z,18.18
2018-11-25T09:38:50.207Z,18.17
2018-11-25T09:39:53.683Z,18.17
2018-11-25T09:40:59.316Z,18.16
2018-11-25T09:42:00.614Z,18.17
2018-11-25T09:43:04.134Z,18.16
2018-11-25T09:44:07.568Z,18.16
2018-11-25T09:45:14.245Z,18.16
2018-11-25T09:46:17.672Z,18.15
2018-11-25T09:47:21.119Z,18.14
2018-11-25T09:48:25.142Z,18.14
2018-11-25T09:49:28.555Z,18.14
2018-11-25T09:50:31.959Z,18.13
2018-11-25T09:51:35.371Z,18.13
2018-11-25T09:52:38.933Z,18.12
2018-11-25T09:53:42.349Z,18.12
2018-11-25T09:54:45.872Z,18.12
2018-11-25T09:55:49.353Z,18.12
2018-11-25T09:56:53.196Z,18.12
2018-11-25T09:57:58.073Z,18.12
2018-11-25T09:59:01.588Z,18.12
2018-11-25T10:00:37.080Z,18.12
2018-11-25T10:01:40.524Z,18.11
2018-11-25T10:02:43.945Z,18.12
2018-11-25T10:03:47.406Z,18.11
2018-11-25T10:04:50.868Z,18.11
2018-11-25T10:05:54.293Z,18.11
2018-11-25T10:06:57.705Z,18.10
2018-11-25T10:08:01.124Z,18.12
2018-11-25T10:09:06.517Z,18.12
2018-11-25T10:10:13.406Z,18.10
2018-11-25T10:11:16.918Z,18.11
2018-11-25T10:12:20.301Z,18.10
2018-11-25T10:13:24.327Z,18.11
2018-11-25T10:14:27.738Z,18.11
2018-11-25T10:15:31.460Z,18.12
2018-11-25T10:16:34.909Z,18.12
2018-11-25T10:17:38.389Z,18.11
2018-11-25T10:18:43.409Z,18.11
2018-11-25T10:19:46.927Z,18.11
2018-11-25T10:20:51.046Z,18.12
2018-11-25T10:21:54.486Z,18.13
2018-11-25T10:22:57.875Z,18.12
2018-11-25T10:24:01.267Z,18.13
2018-11-25T10:25:05.116Z,18.14
2018-11-25T10:26:08.702Z,18.15
2018-11-25T10:27:12.190Z,18.13
2018-11-25T10:28:15.634Z,18.15
2018-11-25T10:29:19.031Z,18.13
2018-11-25T10:30:25.690Z,18.13
2018-11-25T10:31:29.728Z,18.14
2018-11-25T10:32:33.417Z,18.15
2018-11-25T10:33:36.807Z,18.17
2018-11-25T10:34:40.206Z,18.18
2018-11-25T10:35:43.626Z,18.17
2018-11-25T10:36:47.057Z,18.17
2018-11-25T10:37:50.422Z,18.18
2018-11-25T10:38:53.802Z,18.20
2018-11-25T10:39:57.215Z,18.22
2018-11-25T10:41:00.617Z,18.25
2018-11-25T10:42:04.963Z,18.30
2018-11-25T10:43:08.436Z,18.33
2018-11-25T10:44:11.898Z,18.38
2018-11-25T10:45:17.222Z,18.44
2018-11-25T10:46:20.652Z,18.55
2018-11-25T10:47:24.170Z,18.67
2018-11-25T10:48:27.621Z,18.77
2018-11-25T10:49:31.006Z,18.89
2018-11-25T10:50:34.438Z,19.00
2018-11-25T10:51:37.881Z,19.09
2018-11-25T10:52:41.387Z,19.16
2018-11-25T10:53:44.816Z,19.16
2018-11-25T10:54:48.328Z,19.17
2018-11-25T10:55:51.824Z,19.17
2018-11-25T10:56:55.285Z,19.14
2018-11-25T10:57:58.735Z,19.11
2018-11-25T10:59:02.238Z,19.09
2018-11-25T11:00:21.013Z,19.04
2018-11-25T11:01:29.634Z,19.00
2018-11-25T11:02:38.419Z,18.98
2018-11-25T11:03:47.124Z,18.98
2018-11-25T11:04:55.941Z,18.99
2018-11-25T11:06:04.787Z,19.04
2018-11-25T11:07:13.911Z,19.10
2018-11-25T11:08:17.494Z,19.15
2018-11-25T11:09:20.864Z,19.15
2018-11-25T11:10:24.259Z,19.18
2018-11-25T11:11:27.678Z,19.22
2018-11-25T11:12:31.143Z,19.28
2018-11-25T11:13:34.630Z,19.28
2018-11-25T11:14:38.018Z,19.29
2018-11-25T11:15:41.462Z,19.27
2018-11-25T11:16:44.912Z,19.27
2018-11-25T11:17:48.463Z,19.26
2018-11-25T11:18:51.916Z,19.29
2018-11-25T11:19:55.349Z,19.37
2018-11-25T11:20:58.743Z,19.44
2018-11-25T11:22:02.187Z,19.47
2018-11-25T11:23:06.130Z,19.51
2018-11-25T11:24:09.634Z,19.58
2018-11-25T11:25:13.094Z,19.69
2018-11-25T11:26:27.065Z,19.75
2018-11-25T11:27:30.500Z,19.82
2018-11-25T11:28:33.995Z,19.84
2018-11-25T11:29:37.456Z,19.88
2018-11-25T11:30:40.871Z,19.89
2018-11-25T11:31:44.359Z,19.88
2018-11-25T11:32:49.529Z,19.89
2018-11-25T11:33:53.126Z,19.90
2018-11-25T11:34:56.619Z,19.92
2018-11-25T11:36:00.322Z,19.90
2018-11-25T11:37:04.141Z,19.91
2018-11-25T11:38:07.734Z,19.98
2018-11-25T11:39:11.346Z,20.04
2018-11-25T11:40:15.715Z,20.13
2018-11-25T11:41:19.178Z,20.21
2018-11-25T11:42:28.547Z,20.36
2018-11-25T11:43:26.094Z,20.39
2018-11-25T11:44:29.516Z,20.47
2018-11-25T11:45:32.961Z,20.54
2018-11-25T11:46:36.375Z,20.62
2018-11-25T11:47:39.816Z,20.64
2018-11-25T11:48:43.244Z,20.67
2018-11-25T11:49:46.727Z,20.67
2018-11-25T11:50:50.162Z,20.67
2018-11-25T11:51:53.638Z,20.63
2018-11-25T11:52:57.072Z,20.61
2018-11-25T11:54:00.486Z,20.62
2018-11-25T11:55:03.976Z,20.66
2018-11-25T11:56:07.386Z,20.70
2018-11-25T11:57:10.755Z,20.75
2018-11-25T11:58:14.187Z,20.81
2018-11-25T11:59:17.599Z,20.87
2018-11-25T12:00:27.306Z,20.88
2018-11-25T12:01:30.733Z,20.91
2018-11-25T12:02:34.231Z,20.95
2018-11-25T12:03:37.701Z,20.97
2018-11-25T12:04:41.142Z,20.96
2018-11-25T12:05:44.825Z,20.92
2018-11-25T12:06:48.282Z,20.94
2018-11-25T12:07:51.730Z,20.90
2018-11-25T12:08:55.133Z,20.92
2018-11-25T12:09:58.569Z,20.93
2018-11-25T12:11:02.029Z,20.92
2018-11-25T12:12:05.494Z,20.94
2018-11-25T12:13:08.930Z,20.98
2018-11-25T12:14:12.393Z,21.01
2018-11-25T12:15:30.229Z,21.04
2018-11-25T12:16:27.409Z,21.11
2018-11-25T12:17:30.855Z,21.16
2018-11-25T12:18:34.293Z,21.20
2018-11-25T12:19:37.699Z,21.23
2018-11-25T12:20:41.216Z,21.22
2018-11-25T12:21:44.752Z,21.23
2018-11-25T12:22:48.902Z,21.21
2018-11-25T12:23:52.308Z,21.22
2018-11-25T12:24:55.717Z,21.18
2018-11-25T12:25:59.122Z,21.14
2018-11-25T12:27:02.617Z,21.17
2018-11-25T12:28:06.716Z,21.16
2018-11-25T12:29:10.120Z,21.18
2018-11-25T12:30:14.731Z,21.20
2018-11-25T12:31:18.193Z,21.23
2018-11-25T12:32:21.597Z,21.24
2018-11-25T12:33:25.038Z,21.28
2018-11-25T12:34:28.468Z,21.34
2018-11-25T12:35:31.894Z,21.35
2018-11-25T12:36:35.287Z,21.33
2018-11-25T12:37:38.758Z,21.32
2018-11-25T12:38:42.258Z,21.32
2018-11-25T12:39:45.693Z,21.30
2018-11-25T12:40:49.300Z,21.28
2018-11-25T12:41:52.692Z,21.21
2018-11-25T12:42:58.477Z,21.22
2018-11-25T12:44:01.961Z,21.27
2018-11-25T12:45:06.478Z,21.28
2018-11-25T12:46:09.932Z,21.28
2018-11-25T12:47:13.365Z,21.35
2018-11-25T12:48:16.901Z,21.35
2018-11-25T12:49:20.350Z,21.46
2018-11-25T12:50:25.807Z,21.50
2018-11-25T12:51:29.674Z,21.53
2018-11-25T12:52:33.224Z,21.51
2018-11-25T12:53:36.731Z,21.51
2018-11-25T12:54:40.213Z,21.52
2018-11-25T12:55:43.869Z,21.50
2018-11-25T12:56:51.825Z,21.51
2018-11-25T12:57:50.914Z,21.47
2018-11-25T12:58:54.369Z,21.48
2018-11-25T12:59:57.847Z,21.47
2018-11-25T13:01:01.277Z,21.48
2018-11-25T13:02:04.750Z,21.56
2018-11-25T13:03:10.495Z,21.61
2018-11-25T13:04:13.965Z,21.60
2018-11-25T13:05:17.371Z,21.64
2018-11-25T13:06:20.849Z,21.66
2018-11-25T13:07:24.257Z,21.69
2018-11-25T13:08:27.712Z,21.70
2018-11-25T13:09:31.159Z,21.65
2018-11-25T13:10:34.689Z,21.65
2018-11-25T13:11:38.113Z,21.63
2018-11-25T13:12:41.550Z,21.65
2018-11-25T13:13:45.006Z,21.61
2018-11-25T13:14:49.394Z,21.61
2018-11-25T13:15:52.843Z,21.57
2018-11-25T13:16:56.203Z,21.52
2018-11-25T13:17:59.591Z,21.62
2018-11-25T13:19:03.023Z,21.55
2018-11-25T13:20:09.446Z,21.57
2018-11-25T13:21:12.864Z,21.56
2018-11-25T13:22:16.368Z,21.52
2018-11-25T13:23:19.800Z,21.49
2018-11-25T13:24:23.173Z,21.43
2018-11-25T13:25:26.648Z,21.42
2018-11-25T13:26:30.116Z,21.46
2018-11-25T13:27:33.657Z,21.40
2018-11-25T13:28:37.057Z,21.36
2018-11-25T13:29:40.485Z,21.34
2018-11-25T13:30:44.850Z,21.33
2018-11-25T13:31:48.227Z,21.46
2018-11-25T13:32:52.916Z,21.50
2018-11-25T13:33:56.471Z,21.60
2018-11-25T13:35:00.071Z,21.57
2018-11-25T13:36:04.087Z,21.66
2018-11-25T13:37:07.509Z,21.62
2018-11-25T13:38:12.532Z,21.64
2018-11-25T13:39:16.389Z,21.64
2018-11-25T13:40:19.858Z,21.63
2018-11-25T13:41:23.287Z,21.62